createdAt,value
2023-05-24T00:01:56.589Z,3.63
2023-05-24T00:04:00.913Z,3.42
2023-05-24T00:06:03.847Z,3.22
2023-05-24T00:08:06.534Z,3.03
2023-05-24T00:10:10.881Z,3.40
2023-05-24T00:12:13.528Z,4.40
2023-05-24T00:14:17.602Z,2.85
2023-05-24T00:16:20.792Z,2.75
2023-05-24T00:18:23.628Z,3.00
2023-05-24T00:20:26.762Z,2.80
2023-05-24T00:22:29.537Z,2.80
2023-05-24T00:24:32.480Z,2.50
2023-05-24T00:26:35.128Z,3.20
2023-05-24T00:28:37.855Z,3.15
2023-05-24T00:30:42.211Z,3.00
2023-05-24T00:32:45.253Z,3.20
2023-05-24T00:34:47.961Z,2.90
2023-05-24T00:36:50.645Z,3.00
2023-05-24T00:38:53.743Z,2.70
2023-05-24T00:40:57.357Z,3.60
2023-05-24T00:43:00.064Z,2.90
2023-05-24T00:45:02.934Z,3.10
2023-05-24T00:47:07.380Z,3.28
2023-05-24T00:49:10.762Z,2.58
2023-05-24T00:51:14.294Z,2.47
2023-05-24T00:53:17.051Z,2.50
2023-05-24T00:55:19.812Z,2.88
2023-05-24T00:57:23.954Z,3.00
2023-05-24T00:59:27.845Z,2.72
2023-05-24T01:01:31.082Z,3.85
2023-05-24T01:03:36.206Z,2.78
2023-05-24T01:05:39.104Z,3.38
2023-05-24T01:07:53.459Z,3.05
2023-05-24T01:10:08.042Z,2.70
2023-05-24T01:12:21.613Z,3.42
2023-05-24T01:14:30.278Z,2.95
2023-05-24T01:16:42.025Z,2.83
2023-05-24T01:18:53.632Z,2.95
2023-05-24T01:21:04.667Z,2.83
2023-05-24T01:23:27.920Z,2.78
2023-05-24T01:25:45.220Z,2.97
2023-05-24T01:27:50.513Z,2.90
2023-05-24T01:29:54.213Z,3.03
2023-05-24T01:31:57.762Z,2.92
2023-05-24T01:34:00.406Z,2.92
2023-05-24T01:36:03.093Z,2.90
2023-05-24T01:38:05.969Z,3.05
2023-05-24T01:40:10.170Z,3.00
2023-05-24T01:42:22.516Z,3.28
2023-05-24T01:44:32.730Z,3.10
2023-05-24T01:46:38.252Z,2.70
2023-05-24T01:48:53.494Z,3.60
2023-05-24T01:50:59.585Z,2.97
2023-05-24T01:53:05.957Z,3.72
2023-05-24T01:55:10.711Z,3.00
2023-05-24T01:57:14.115Z,3.25
2023-05-24T01:59:17.365Z,3.00
2023-05-24T02:01:21.901Z,3.10
2023-05-24T02:03:24.829Z,3.10
2023-05-24T02:05:27.717Z,3.33
2023-05-24T02:07:30.397Z,2.95
2023-05-24T02:09:33.136Z,2.90
2023-05-24T02:11:35.959Z,2.80
2023-05-24T02:13:38.659Z,3.20
2023-05-24T02:15:42.015Z,3.13
2023-05-24T02:17:46.144Z,4.28
2023-05-24T02:19:48.911Z,3.40
2023-05-24T02:21:53.100Z,3.35
2023-05-24T02:23:55.902Z,3.50
2023-05-24T02:25:58.628Z,4.05
2023-05-24T02:28:01.381Z,3.40
2023-05-24T02:30:04.390Z,3.28
2023-05-24T02:32:07.652Z,3.53
2023-05-24T02:34:11.801Z,3.25
2023-05-24T02:36:14.623Z,2.90
2023-05-24T02:38:17.378Z,3.22
2023-05-24T02:40:20.189Z,3.28
2023-05-24T02:42:23.005Z,3.60
2023-05-24T02:44:25.853Z,3.60
2023-05-24T02:46:28.624Z,3.40
2023-05-24T02:48:31.326Z,3.90
2023-05-24T02:50:36.669Z,3.75
2023-05-24T02:52:39.427Z,3.78
2023-05-24T02:54:42.174Z,3.40
2023-05-24T02:56:44.813Z,3.50
2023-05-24T02:58:47.496Z,4.03
2023-05-24T03:00:50.356Z,4.03
2023-05-24T03:02:53.202Z,3.10
2023-05-24T03:04:56.112Z,3.78
2023-05-24T03:07:00.270Z,3.63
2023-05-24T03:09:02.891Z,3.47
2023-05-24T03:11:05.911Z,3.55
2023-05-24T03:13:08.817Z,3.80
2023-05-24T03:15:12.096Z,3.70
2023-05-24T03:17:14.859Z,3.60
2023-05-24T03:19:18.474Z,3.35
2023-05-24T03:21:21.372Z,3.70
2023-05-24T03:23:25.450Z,3.25
2023-05-24T03:25:28.387Z,3.50
2023-05-24T03:27:31.128Z,4.13
2023-05-24T03:29:33.912Z,3.67
2023-05-24T03:31:36.704Z,3.50
2023-05-24T03:33:39.487Z,3.20
2023-05-24T03:35:42.125Z,3.55
2023-05-24T03:37:44.740Z,3.40
2023-05-24T03:39:48.711Z,3.65
2023-05-24T03:41:51.423Z,3.55
2023-05-24T03:43:54.144Z,3.58
2023-05-24T03:45:56.946Z,3.10
2023-05-24T03:47:59.731Z,4.22
2023-05-24T03:50:02.592Z,3.40
2023-05-24T03:52:05.790Z,3.63
2023-05-24T03:54:08.410Z,3.33
2023-05-24T03:56:12.489Z,3.42
2023-05-24T03:58:15.182Z,3.97
2023-05-24T04:00:18.364Z,4.03
2023-05-24T04:02:21.239Z,3.63
2023-05-24T04:04:23.999Z,4.63
2023-05-24T04:06:29.136Z,3.95
2023-05-24T04:08:31.909Z,3.45
2023-05-24T04:10:34.633Z,4.03
2023-05-24T04:12:39.692Z,3.75
2023-05-24T04:14:42.369Z,3.78
2023-05-24T04:16:45.199Z,3.35
2023-05-24T04:18:48.125Z,3.40
2023-05-24T04:20:51.016Z,3.22
2023-05-24T04:22:53.758Z,3.97
2023-05-24T04:24:56.461Z,3.53
2023-05-24T04:26:59.335Z,3.55
2023-05-24T04:29:03.731Z,3.70
2023-05-24T04:31:07.161Z,3.83
2023-05-24T04:33:09.879Z,3.75
2023-05-24T04:35:13.273Z,4.32
2023-05-24T04:37:17.129Z,3.58
2023-05-24T04:39:19.953Z,3.90
2023-05-24T04:41:24.416Z,4.00
2023-05-24T04:43:27.601Z,3.55
2023-05-24T04:45:33.039Z,4.75
2023-05-24T04:47:36.882Z,3.38
2023-05-24T04:49:42.967Z,3.83
2023-05-24T04:51:46.077Z,3.83
2023-05-24T04:53:48.782Z,3.72
2023-05-24T04:55:52.540Z,4.93
2023-05-24T04:57:55.274Z,4.05
2023-05-24T04:59:57.963Z,4.00
2023-05-24T05:02:02.059Z,4.13
2023-05-24T05:04:05.505Z,3.65
2023-05-24T05:06:08.413Z,3.92
2023-05-24T05:08:11.128Z,4.28
2023-05-24T05:10:13.766Z,4.05
2023-05-24T05:12:17.046Z,4.22
2023-05-24T05:14:19.741Z,3.70
2023-05-24T05:16:22.496Z,3.55
2023-05-24T05:18:26.570Z,4.00
2023-05-24T05:20:29.299Z,4.10
2023-05-24T05:22:31.992Z,3.80
2023-05-24T05:24:34.706Z,3.80
2023-05-24T05:26:37.535Z,4.00
2023-05-24T05:28:40.171Z,3.60
2023-05-24T05:30:43.044Z,3.38
2023-05-24T05:32:46.037Z,3.20
2023-05-24T05:34:50.101Z,3.97
2023-05-24T05:36:52.736Z,4.10
2023-05-24T05:38:55.636Z,3.88
2023-05-24T05:40:58.272Z,4.05
2023-05-24T05:43:00.968Z,3.90
2023-05-24T05:45:04.165Z,3.97
2023-05-24T05:47:08.743Z,4.28
2023-05-24T05:49:11.435Z,4.00
2023-05-24T05:51:15.480Z,3.53
2023-05-24T05:53:18.129Z,4.75
2023-05-24T05:55:21.047Z,3.90
2023-05-24T05:57:24.464Z,4.20
2023-05-24T05:59:27.308Z,3.67
2023-05-24T06:01:29.960Z,4.20
2023-05-24T06:03:32.743Z,4.00
2023-05-24T06:05:35.644Z,4.30
2023-05-24T06:07:39.718Z,3.80
2023-05-24T06:09:42.388Z,4.07
2023-05-24T06:11:45.129Z,4.20
2023-05-24T06:13:47.882Z,4.18
2023-05-24T06:15:52.757Z,3.80
2023-05-24T06:17:55.494Z,3.78
2023-05-24T06:19:58.265Z,3.83
2023-05-24T06:22:01.348Z,3.95
2023-05-24T06:24:05.768Z,3.85
2023-05-24T06:26:09.572Z,3.63
2023-05-24T06:28:12.263Z,4.53
2023-05-24T06:30:15.425Z,4.05
2023-05-24T06:32:18.137Z,3.85
2023-05-24T06:34:21.969Z,4.07
2023-05-24T06:36:24.696Z,4.00
2023-05-24T06:38:27.928Z,4.55
2023-05-24T06:40:31.970Z,3.70
2023-05-24T06:42:34.672Z,4.18
2023-05-24T06:44:37.309Z,4.57
2023-05-24T06:46:40.324Z,4.22
2023-05-24T06:48:43.191Z,4.13
2023-05-24T06:50:46.262Z,4.30
2023-05-24T06:52:49.354Z,4.88
2023-05-24T06:54:52.154Z,4.30
2023-05-24T06:56:56.207Z,4.20
2023-05-24T06:58:59.691Z,4.32
2023-05-24T07:01:02.574Z,4.00
2023-05-24T07:03:05.462Z,4.55
2023-05-24T07:05:12.039Z,4.70
2023-05-24T07:09:17.818Z,4.10
2023-05-24T07:11:20.674Z,4.28
2023-05-24T07:13:24.689Z,4.10
2023-05-24T07:15:27.349Z,4.72
2023-05-24T07:17:30.122Z,3.80
2023-05-24T07:19:35.810Z,4.03
2023-05-24T07:21:38.603Z,4.43
2023-05-24T07:23:41.284Z,4.05
2023-05-24T07:25:44.009Z,3.80
2023-05-24T07:27:46.767Z,4.30
2023-05-24T07:29:51.061Z,4.53
2023-05-24T07:31:56.671Z,3.75
2023-05-24T07:33:59.454Z,3.63
2023-05-24T07:36:02.614Z,4.03
2023-05-24T07:38:05.734Z,4.00
2023-05-24T07:40:11.819Z,3.78
2023-05-24T07:42:14.586Z,3.95
2023-05-24T07:44:17.329Z,4.38
2023-05-24T07:46:21.593Z,3.60
2023-05-24T07:48:24.429Z,3.63
2023-05-24T07:50:28.071Z,3.80
2023-05-24T07:52:31.304Z,3.20
2023-05-24T07:54:34.029Z,3.17
2023-05-24T07:56:37.750Z,3.88
2023-05-24T07:58:41.873Z,4.05
2023-05-24T08:00:44.593Z,4.35
2023-05-24T08:02:48.728Z,4.00
2023-05-24T08:04:51.753Z,3.20
2023-05-24T08:06:54.479Z,3.90
2023-05-24T08:08:57.473Z,3.55
2023-05-24T08:11:00.277Z,3.20
2023-05-24T08:13:03.509Z,3.63
2023-05-24T08:15:07.560Z,4.03
2023-05-24T08:17:10.271Z,4.00
2023-05-24T08:19:14.612Z,4.00
2023-05-24T08:21:17.660Z,4.28
2023-05-24T08:23:20.318Z,4.03
2023-05-24T08:25:23.097Z,3.90
2023-05-24T08:27:28.656Z,3.88
2023-05-24T08:29:31.441Z,4.57
2023-05-24T08:31:34.534Z,3.95
2023-05-24T08:33:37.402Z,4.50
2023-05-24T08:35:41.801Z,4.28
2023-05-24T08:37:44.684Z,4.32
2023-05-24T08:39:47.646Z,4.15
2023-05-24T08:42:07.246Z,4.35
2023-05-24T08:44:11.996Z,3.60
2023-05-24T08:46:16.480Z,4.57
2023-05-24T08:48:20.257Z,3.50
2023-05-24T08:50:23.713Z,4.10
2023-05-24T08:52:30.348Z,3.92
2023-05-24T08:56:35.925Z,4.05
2023-05-24T08:58:39.640Z,3.80
2023-05-24T09:00:42.331Z,3.50
2023-05-24T09:02:47.066Z,4.03
2023-05-24T09:04:51.357Z,4.38
2023-05-24T09:06:55.639Z,3.42
2023-05-24T09:09:00.738Z,3.10
2023-05-24T09:11:04.851Z,3.88
2023-05-24T09:13:08.691Z,3.80
2023-05-24T09:15:11.509Z,3.95
2023-05-24T09:17:15.762Z,4.05
2023-05-24T09:19:20.321Z,3.65
2023-05-24T09:21:23.271Z,3.90
2023-05-24T09:23:28.025Z,4.55
2023-05-24T09:25:32.291Z,4.00
2023-05-24T09:27:36.116Z,4.15
2023-05-24T09:29:38.858Z,4.15
2023-05-24T09:31:41.740Z,4.53
2023-05-24T09:33:44.410Z,4.57
2023-05-24T09:35:49.402Z,4.35
2023-05-24T09:37:55.168Z,4.35
2023-05-24T09:39:58.163Z,3.65
2023-05-24T09:42:04.311Z,4.00
2023-05-24T09:44:07.554Z,4.28
2023-05-24T09:46:10.698Z,4.18
2023-05-24T09:48:14.018Z,4.35
2023-05-24T09:50:17.845Z,4.00
2023-05-24T09:52:20.904Z,4.25
2023-05-24T09:54:25.774Z,3.83
2023-05-24T09:56:28.585Z,3.90
2023-05-24T09:58:33.951Z,3.80
2023-05-24T10:00:39.643Z,3.80
2023-05-24T10:02:52.215Z,4.30
2023-05-24T10:05:01.067Z,4.28
2023-05-24T10:07:04.830Z,4.20
2023-05-24T10:09:07.987Z,4.22
2023-05-24T10:11:10.719Z,4.00
2023-05-24T10:13:15.802Z,3.80
2023-05-24T10:15:20.041Z,4.22
2023-05-24T10:17:22.839Z,5.32
2023-05-24T10:19:25.724Z,4.30
2023-05-24T10:21:32.767Z,4.28
2023-05-24T10:23:37.643Z,4.38
2023-05-24T10:25:44.996Z,3.67
2023-05-24T10:27:50.741Z,4.55
2023-05-24T10:30:00.457Z,4.38
2023-05-24T10:32:06.311Z,4.53
2023-05-24T10:34:10.369Z,4.07
2023-05-24T10:36:16.164Z,3.83
2023-05-24T10:38:23.268Z,4.13
2023-05-24T10:40:26.352Z,4.45
2023-05-24T10:42:32.309Z,4.45
2023-05-24T10:44:35.029Z,4.18
2023-05-24T10:46:38.415Z,5.07
2023-05-24T10:48:43.004Z,4.47
2023-05-24T10:50:45.826Z,4.68
2023-05-24T10:52:49.789Z,4.40
2023-05-24T10:55:13.367Z,4.22
2023-05-24T10:57:24.423Z,4.63
2023-05-24T10:59:35.184Z,4.63
2023-05-24T11:01:37.955Z,4.30
2023-05-24T11:03:43.429Z,4.15
2023-05-24T11:05:54.609Z,4.20
2023-05-24T11:08:00.229Z,4.10
2023-05-24T11:10:08.184Z,4.68
2023-05-24T11:12:11.170Z,4.22
2023-05-24T11:14:14.638Z,3.90
2023-05-24T11:16:37.076Z,4.50
2023-05-24T11:18:40.214Z,4.82
2023-05-24T11:20:45.514Z,4.25
2023-05-24T11:22:48.741Z,4.50
2023-05-24T11:24:53.309Z,4.65
2023-05-24T11:26:57.163Z,4.30
2023-05-24T11:29:04.869Z,4.05
2023-05-24T11:31:10.320Z,4.45
2023-05-24T11:33:18.420Z,4.43
2023-05-24T11:35:23.096Z,4.68
2023-05-24T11:37:38.411Z,4.38
2023-05-24T11:39:52.321Z,4.05
2023-05-24T11:41:56.823Z,4.47
2023-05-24T11:44:00.047Z,4.47
2023-05-24T11:46:02.805Z,4.20
2023-05-24T11:48:07.137Z,4.88
2023-05-24T11:50:10.781Z,4.28
2023-05-24T11:52:14.692Z,3.97
2023-05-24T11:54:19.934Z,3.80
2023-05-24T11:56:23.237Z,3.90
2023-05-24T11:58:30.418Z,4.28
2023-05-24T12:00:33.125Z,3.20
2023-05-24T12:02:37.806Z,3.15
2023-05-24T12:04:41.136Z,4.38
2023-05-24T12:06:46.138Z,3.38
2023-05-24T12:08:49.666Z,4.43
2023-05-24T12:10:54.660Z,3.83
2023-05-24T12:12:57.998Z,3.63
2023-05-24T12:15:00.893Z,3.50
2023-05-24T12:17:03.747Z,3.78
2023-05-24T12:19:11.844Z,3.90
2023-05-24T12:21:22.916Z,3.53
2023-05-24T12:23:27.827Z,2.67
2023-05-24T12:25:30.522Z,3.15
2023-05-24T12:27:35.509Z,3.08
2023-05-24T12:29:40.755Z,3.22
2023-05-24T12:31:45.371Z,3.00
2023-05-24T12:33:48.526Z,3.85
2023-05-24T12:35:51.324Z,3.03
2023-05-24T12:38:00.907Z,2.75
2023-05-24T12:40:05.410Z,3.30
2023-05-24T12:42:08.818Z,3.05
2023-05-24T12:44:13.217Z,3.70
2023-05-24T12:46:15.937Z,2.88
2023-05-24T12:48:19.021Z,3.30
2023-05-24T12:50:23.086Z,3.50
2023-05-24T12:52:26.873Z,3.25
2023-05-24T12:54:30.557Z,3.40
2023-05-24T12:56:33.326Z,2.95
2023-05-24T12:58:36.088Z,3.50
2023-05-24T13:00:40.258Z,3.65
2023-05-24T13:02:43.036Z,2.72
2023-05-24T13:04:45.786Z,3.00
2023-05-24T13:06:49.064Z,2.78
2023-05-24T13:08:52.377Z,2.90
2023-05-24T13:10:55.160Z,2.53
2023-05-24T13:12:57.847Z,2.70
2023-05-24T13:15:00.769Z,3.05
2023-05-24T13:17:04.892Z,3.17
2023-05-24T13:19:08.089Z,3.55
2023-05-24T13:21:12.325Z,3.00
2023-05-24T13:23:15.322Z,2.92
2023-05-24T13:25:17.965Z,3.03
2023-05-24T13:27:20.713Z,3.38
2023-05-24T13:29:36.854Z,3.20
2023-05-24T13:31:45.573Z,3.25
2023-05-24T13:33:49.680Z,2.80
2023-05-24T13:35:52.551Z,3.40
2023-05-24T13:37:57.870Z,3.25
2023-05-24T13:40:00.557Z,3.35
2023-05-24T13:42:03.389Z,3.20
2023-05-24T13:44:07.219Z,3.55
2023-05-24T13:46:12.330Z,3.58
2023-05-24T13:48:15.217Z,3.10
2023-05-24T13:50:20.461Z,3.78
2023-05-24T13:52:23.620Z,3.40
2023-05-24T13:54:26.470Z,3.25
2023-05-24T13:56:33.224Z,3.47
2023-05-24T13:58:36.693Z,3.55
2023-05-24T14:00:39.358Z,4.20
2023-05-24T14:02:43.243Z,3.35
2023-05-24T14:04:45.990Z,3.20
2023-05-24T14:06:50.023Z,3.05
2023-05-24T14:08:53.133Z,3.10
2023-05-24T14:10:56.190Z,3.60
2023-05-24T14:13:20.635Z,3.00
2023-05-24T14:15:21.808Z,3.53
2023-05-24T14:17:24.698Z,3.22
2023-05-24T14:19:27.497Z,3.30
2023-05-24T14:21:31.081Z,2.63
2023-05-24T14:23:35.216Z,3.17
2023-05-24T14:25:38.001Z,4.00
2023-05-24T14:27:41.224Z,2.92
2023-05-24T14:29:43.906Z,2.70
2023-05-24T14:31:46.704Z,3.05
2023-05-24T14:33:49.446Z,3.17
2023-05-24T14:35:52.512Z,2.72
2023-05-24T14:37:55.213Z,3.58
2023-05-24T14:39:59.288Z,2.80
2023-05-24T14:42:02.013Z,3.00
2023-05-24T14:44:04.758Z,2.90
2023-05-24T14:46:07.455Z,2.42
2023-05-24T14:48:11.404Z,2.78
2023-05-24T14:50:14.521Z,3.13
2023-05-24T14:52:17.245Z,3.10
2023-05-24T14:54:19.978Z,2.63
2023-05-24T14:56:24.030Z,2.55
2023-05-24T14:58:27.262Z,2.78
2023-05-24T15:00:30.113Z,2.90
2023-05-24T15:02:34.219Z,2.67
2023-05-24T15:04:37.052Z,2.60
2023-05-24T15:06:40.096Z,3.08
2023-05-24T15:08:42.966Z,2.80
2023-05-24T15:10:46.537Z,2.95
2023-05-24T15:12:52.018Z,2.67
2023-05-24T15:14:54.754Z,2.53
2023-05-24T15:16:57.457Z,2.88
2023-05-24T15:19:00.112Z,2.83
2023-05-24T15:21:02.734Z,2.70
2023-05-24T15:23:06.348Z,2.80
2023-05-24T15:25:10.044Z,2.50
2023-05-24T15:27:12.750Z,2.65
2023-05-24T15:29:17.572Z,2.88
2023-05-24T15:31:20.424Z,2.60
2023-05-24T15:33:23.359Z,2.72
2023-05-24T15:35:26.722Z,2.88
2023-05-24T15:37:29.591Z,2.20
2023-05-24T15:39:33.174Z,2.75
2023-05-24T15:41:37.523Z,2.30
2023-05-24T15:43:40.321Z,2.65
2023-05-24T15:45:46.029Z,2.63
2023-05-24T15:47:48.827Z,3.00
2023-05-24T15:49:51.505Z,2.35
2023-05-24T15:53:59.799Z,2.15
2023-05-24T15:56:02.446Z,3.05
2023-05-24T15:58:05.805Z,2.47
2023-05-24T16:00:09.591Z,2.50
2023-05-24T16:02:13.711Z,2.38
2023-05-24T16:04:16.528Z,2.63
2023-05-24T16:06:19.258Z,2.88
2023-05-24T16:08:27.458Z,2.45
2023-05-24T16:10:30.791Z,2.97
2023-05-24T16:12:33.478Z,2.30
2023-05-24T16:14:36.507Z,2.05
2023-05-24T16:16:39.326Z,2.65
2023-05-24T16:18:46.463Z,2.30
2023-05-24T16:20:49.674Z,2.10
2023-05-24T16:22:52.920Z,2.83
2023-05-24T16:24:55.675Z,2.55
2023-05-24T16:26:58.486Z,2.85
2023-05-24T16:29:01.689Z,2.30
2023-05-24T16:31:04.357Z,2.08
2023-05-24T16:33:07.100Z,2.03
2023-05-24T16:35:11.312Z,2.47
2023-05-24T16:37:14.207Z,2.40
2023-05-24T16:39:16.922Z,2.38
2023-05-24T16:41:19.551Z,2.35
2023-05-24T16:43:22.706Z,2.38
2023-05-24T16:45:25.458Z,2.47
2023-05-24T16:47:29.913Z,2.30
2023-05-24T16:49:32.752Z,2.40
2023-05-24T16:51:36.797Z,2.08
2023-05-24T16:53:39.520Z,2.40
2023-05-24T16:55:42.295Z,2.85
2023-05-24T16:57:44.975Z,2.25
2023-05-24T16:59:50.652Z,2.60
2023-05-24T17:01:53.653Z,2.15
2023-05-24T17:03:56.555Z,2.30
2023-05-24T17:06:03.301Z,2.10
2023-05-24T17:08:08.402Z,2.38
2023-05-24T17:10:11.415Z,2.15
2023-05-24T17:12:14.148Z,2.50
2023-05-24T17:14:16.847Z,2.40
2023-05-24T17:16:20.604Z,2.17
2023-05-24T17:18:28.839Z,2.20
2023-05-24T17:20:31.788Z,2.30
2023-05-24T17:22:34.543Z,2.08
2023-05-24T17:24:38.677Z,2.50
2023-05-24T17:26:42.494Z,2.65
2023-05-24T17:28:46.155Z,2.17
2023-05-24T17:30:48.787Z,1.98
2023-05-24T17:32:51.469Z,2.20
2023-05-24T17:34:54.205Z,2.10
2023-05-24T17:36:56.906Z,2.40
2023-05-24T17:38:59.591Z,2.28
2023-05-24T17:41:03.719Z,2.45
2023-05-24T17:43:06.383Z,2.03
2023-05-24T17:45:10.348Z,2.55
2023-05-24T17:47:12.980Z,2.50
2023-05-24T17:49:15.711Z,1.80
2023-05-24T17:51:19.462Z,2.35
2023-05-24T17:53:31.310Z,2.13
2023-05-24T17:55:35.110Z,2.22
2023-05-24T17:57:39.135Z,1.85
2023-05-24T17:59:41.832Z,1.98
2023-05-24T18:01:46.651Z,2.58
2023-05-24T18:03:49.656Z,2.30
2023-05-24T18:05:52.350Z,2.30
2023-05-24T18:07:55.115Z,2.47
2023-05-24T18:10:00.020Z,2.15
2023-05-24T18:12:03.119Z,2.10
2023-05-24T18:14:07.500Z,2.33
2023-05-24T18:16:11.785Z,1.90
2023-05-24T18:18:14.521Z,2.03
2023-05-24T18:20:17.241Z,2.20
2023-05-24T18:22:20.000Z,2.20
2023-05-24T18:24:22.734Z,2.15
2023-05-24T18:26:25.708Z,2.47
2023-05-24T18:28:28.423Z,1.77
2023-05-24T18:30:32.601Z,2.40
2023-05-24T18:32:36.750Z,2.03
2023-05-24T18:34:39.549Z,2.10
2023-05-24T18:36:42.211Z,2.25
2023-05-24T18:38:47.147Z,2.25
2023-05-24T18:40:49.802Z,2.10
2023-05-24T18:42:52.517Z,1.90
2023-05-24T18:44:55.190Z,2.35
2023-05-24T18:46:59.433Z,2.40
2023-05-24T18:49:03.113Z,1.90
2023-05-24T18:51:06.475Z,1.98
2023-05-24T18:53:09.780Z,2.30
2023-05-24T18:55:12.444Z,2.03
2023-05-24T18:57:15.125Z,2.28
2023-05-24T18:59:17.817Z,2.22
2023-05-24T19:01:20.596Z,1.85
2023-05-24T19:03:25.305Z,2.13
2023-05-24T19:05:28.003Z,2.08
2023-05-24T19:07:30.662Z,1.95
2023-05-24T19:09:33.833Z,2.00
2023-05-24T19:11:36.871Z,1.60
2023-05-24T19:13:39.981Z,1.80
2023-05-24T19:15:42.879Z,1.92
2023-05-24T19:17:45.878Z,1.85
2023-05-24T19:19:49.980Z,2.30
2023-05-24T19:21:52.894Z,1.80
2023-05-24T19:23:55.566Z,1.70
2023-05-24T19:25:58.234Z,1.65
2023-05-24T19:28:01.194Z,1.73
2023-05-24T19:30:05.214Z,1.98
2023-05-24T19:32:08.874Z,1.60
2023-05-24T19:34:11.664Z,1.55
2023-05-24T19:36:16.296Z,1.70
2023-05-24T19:38:19.709Z,1.60
2023-05-24T19:40:22.420Z,1.80
2023-05-24T19:42:26.213Z,1.92
2023-05-24T19:44:29.850Z,1.90
2023-05-24T19:46:32.785Z,1.70
2023-05-24T19:48:35.532Z,1.98
2023-05-24T19:50:39.355Z,1.85
2023-05-24T19:52:43.406Z,1.70
2023-05-24T19:54:46.069Z,1.80
2023-05-24T19:56:50.672Z,1.50
2023-05-24T19:58:53.338Z,2.00
2023-05-24T20:00:56.005Z,1.85
2023-05-24T20:02:58.657Z,1.70
2023-05-24T20:05:01.343Z,1.60
2023-05-24T20:07:04.029Z,1.52
2023-05-24T20:09:08.572Z,2.00
2023-05-24T20:11:12.168Z,1.75
2023-05-24T20:13:14.908Z,1.83
2023-05-24T20:15:18.271Z,1.65
2023-05-24T20:17:21.000Z,2.00
2023-05-24T20:19:23.728Z,1.50
2023-05-24T20:21:26.373Z,1.73
2023-05-24T20:23:29.111Z,1.88
2023-05-24T20:25:33.133Z,1.60
2023-05-24T20:27:35.811Z,1.80
2023-05-24T20:29:38.555Z,1.80
2023-05-24T20:31:41.342Z,2.03
2023-05-24T20:33:44.137Z,1.80
2023-05-24T20:35:47.067Z,1.88
2023-05-24T20:37:49.806Z,1.70
2023-05-24T20:39:52.520Z,1.63
2023-05-24T20:41:58.327Z,2.10
2023-05-24T20:44:01.528Z,1.70
2023-05-24T20:46:04.352Z,2.10
2023-05-24T20:48:07.669Z,1.75
2023-05-24T20:50:10.802Z,1.45
2023-05-24T20:52:16.213Z,1.70
2023-05-24T20:54:18.952Z,2.38
2023-05-24T20:56:23.556Z,1.92
2023-05-24T20:58:27.630Z,1.70
2023-05-24T21:00:30.459Z,1.80
2023-05-24T21:02:33.319Z,1.95
2023-05-24T21:04:36.211Z,1.48
2023-05-24T21:06:39.808Z,1.70
2023-05-24T21:08:43.548Z,1.88
2023-05-24T21:10:46.452Z,1.73
2023-05-24T21:12:49.360Z,2.03
2023-05-24T21:14:54.710Z,1.88
2023-05-24T21:16:57.466Z,1.95
2023-05-24T21:19:01.161Z,2.05
2023-05-24T21:21:06.287Z,2.13
2023-05-24T21:23:10.163Z,1.85
2023-05-24T21:25:12.941Z,1.88
2023-05-24T21:27:15.731Z,1.50
2023-05-24T21:29:18.399Z,1.80
2023-05-24T21:31:22.872Z,1.83
2023-05-24T21:33:25.880Z,1.58
2023-05-24T21:35:28.813Z,1.50
2023-05-24T21:37:31.533Z,2.00
2023-05-24T21:39:34.310Z,2.10
2023-05-24T21:41:38.927Z,1.60
2023-05-24T21:43:42.706Z,2.05
2023-05-24T21:45:45.536Z,2.28
2023-05-24T21:47:50.278Z,1.98
2023-05-24T21:49:54.802Z,1.90
2023-05-24T21:51:57.443Z,1.80
2023-05-24T21:54:00.357Z,1.55
2023-05-24T21:56:03.606Z,1.88
2023-05-24T21:58:06.318Z,1.65
2023-05-24T22:00:10.252Z,1.95
2023-05-24T22:02:14.300Z,2.60
2023-05-24T22:04:18.573Z,1.83
2023-05-24T22:06:21.352Z,2.00
2023-05-24T22:08:24.120Z,1.75
2023-05-24T22:10:27.191Z,1.95
2023-05-24T22:12:29.905Z,2.33
2023-05-24T22:14:32.627Z,2.10
2023-05-24T22:16:35.998Z,2.00
2023-05-24T22:18:38.788Z,2.13
2023-05-24T22:20:44.860Z,2.42
2023-05-24T22:22:53.573Z,2.00
2023-05-24T22:24:56.792Z,2.22
2023-05-24T22:27:01.117Z,2.25
2023-05-24T22:29:04.608Z,1.85
2023-05-24T22:31:07.352Z,2.00
2023-05-24T22:33:10.145Z,1.90
2023-05-24T22:35:12.980Z,1.90
2023-05-24T22:37:17.430Z,2.10
2023-05-24T22:39:20.160Z,1.80
2023-05-24T22:41:23.500Z,2.17
2023-05-24T22:43:26.239Z,2.40
2023-05-24T22:45:28.945Z,2.38
2023-05-24T22:47:33.507Z,2.78
2023-05-24T22:49:36.455Z,2.13
2023-05-24T22:51:39.181Z,1.67
2023-05-24T22:53:43.218Z,2.00
2023-05-24T22:55:46.113Z,2.13
2023-05-24T22:57:48.857Z,1.77
2023-05-24T22:59:51.569Z,2.03
2023-05-24T23:01:54.404Z,2.22
2023-05-24T23:04:07.767Z,1.92
2023-05-24T23:06:21.137Z,2.90
2023-05-24T23:08:25.618Z,2.60
2023-05-24T23:10:29.691Z,1.70
2023-05-24T23:12:33.152Z,2.00
2023-05-24T23:14:38.344Z,2.03
2023-05-24T23:16:45.440Z,2.17
2023-05-24T23:18:48.761Z,2.08
2023-05-24T23:20:54.206Z,2.25
2023-05-24T23:22:58.899Z,2.22
2023-05-24T23:25:02.535Z,2.88
2023-05-24T23:27:07.250Z,2.28
2023-05-24T23:29:10.143Z,2.50
2023-05-24T23:31:13.177Z,2.10
2023-05-24T23:33:15.899Z,1.80
2023-05-24T23:35:18.624Z,3.45
2023-05-24T23:37:21.365Z,2.28
2023-05-24T23:39:24.068Z,2.50
2023-05-24T23:41:27.195Z,2.10
2023-05-24T23:43:31.958Z,2.15
2023-05-24T23:45:34.924Z,2.20
2023-05-24T23:47:37.775Z,2.22
2023-05-24T23:49:40.446Z,3.08
2023-05-24T23:51:43.170Z,2.25
2023-05-24T23:53:45.780Z,2.70
2023-05-24T23:55:48.433Z,2.03
2023-05-24T23:57:52.127Z,2.20
2023-05-24T23:59:56.099Z,2.53
